createdAt,value
2023-03-02T00:00:26.924Z,18.31
2023-03-02T00:02:54.114Z,18.27
2023-03-02T00:05:20.471Z,18.25
2023-03-02T00:07:46.751Z,18.22
2023-03-02T00:10:13.050Z,18.19
2023-03-02T00:12:39.335Z,18.16
2023-03-02T00:15:05.671Z,18.13
2023-03-02T00:17:32.633Z,18.02
2023-03-02T00:19:59.044Z,18.08
2023-03-02T00:22:25.382Z,18.04
2023-03-02T00:24:51.657Z,18.01
2023-03-02T00:27:18.258Z,17.97
2023-03-02T00:29:45.549Z,17.94
2023-03-02T00:32:12.639Z,17.91
2023-03-02T00:34:38.980Z,17.88
2023-03-02T00:37:06.084Z,17.85
2023-03-02T00:39:32.445Z,17.82
2023-03-02T00:41:58.768Z,17.78
2023-03-02T00:44:25.155Z,17.75
2023-03-02T00:46:51.518Z,17.71
2023-03-02T00:49:18.507Z,17.67
2023-03-02T00:51:44.991Z,17.65
2023-03-02T00:54:11.339Z,17.63
2023-03-02T00:56:38.559Z,17.62
2023-03-02T00:59:05.604Z,17.61
2023-03-02T01:01:32.250Z,17.59
2023-03-02T01:03:59.091Z,17.58
2023-03-02T01:06:25.429Z,17.57
2023-03-02T01:08:51.783Z,17.56
2023-03-02T01:11:18.906Z,17.56
2023-03-02T01:13:45.206Z,17.55
2023-03-02T01:16:11.855Z,17.53
2023-03-02T01:18:38.230Z,17.53
2023-03-02T01:21:04.488Z,17.51
2023-03-02T01:23:30.978Z,17.50
2023-03-02T01:25:57.394Z,17.49
2023-03-02T01:28:23.686Z,17.47
2023-03-02T01:30:50.028Z,17.45
2023-03-02T01:33:16.361Z,17.45
2023-03-02T01:35:42.652Z,17.42
2023-03-02T01:38:09.009Z,17.40
2023-03-02T01:43:29.861Z,17.36
2023-03-02T01:45:59.269Z,17.33
2023-03-02T01:48:25.797Z,17.31
2023-03-02T01:50:56.884Z,17.29
2023-03-02T01:53:23.430Z,17.25
2023-03-02T01:55:55.586Z,17.21
2023-03-02T01:58:21.888Z,17.18
2023-03-02T02:00:49.816Z,17.15
2023-03-02T02:03:16.914Z,17.14
2023-03-02T02:05:43.524Z,17.10
2023-03-02T02:08:09.896Z,17.09
2023-03-02T02:10:36.737Z,17.07
2023-03-02T02:13:03.670Z,17.06
2023-03-02T02:15:35.578Z,17.04
2023-03-02T02:18:10.853Z,17.03
2023-03-02T02:20:46.394Z,17.00
2023-03-02T02:23:15.708Z,16.99
2023-03-02T02:25:52.624Z,16.97
2023-03-02T02:28:19.533Z,16.97
2023-03-02T02:30:45.879Z,16.94
2023-03-02T02:33:12.169Z,16.94
2023-03-02T02:35:39.287Z,16.92
2023-03-02T02:38:05.536Z,16.92
2023-03-02T02:40:32.632Z,16.91
2023-03-02T02:42:59.625Z,16.90
2023-03-02T02:45:25.973Z,16.90
2023-03-02T02:47:54.495Z,16.89
2023-03-02T02:50:20.772Z,16.88
2023-03-02T02:52:49.406Z,16.88
2023-03-02T02:55:15.683Z,16.88
2023-03-02T02:57:59.725Z,16.87
2023-03-02T03:00:26.256Z,16.88
2023-03-02T03:02:52.502Z,16.87
2023-03-02T03:05:18.913Z,16.87
2023-03-02T03:07:46.400Z,16.86
2023-03-02T03:10:19.821Z,16.85
2023-03-02T03:12:52.010Z,16.84
2023-03-02T03:15:25.229Z,16.82
2023-03-02T03:17:51.494Z,16.79
2023-03-02T03:20:25.788Z,16.78
2023-03-02T03:22:54.712Z,16.75
2023-03-02T03:25:25.264Z,16.73
2023-03-02T03:28:05.174Z,16.70
2023-03-02T03:30:34.053Z,16.69
2023-03-02T03:33:00.372Z,16.69
2023-03-02T03:35:26.775Z,16.69
2023-03-02T03:37:54.049Z,16.69
2023-03-02T03:40:20.337Z,16.69
2023-03-02T03:42:46.768Z,16.68
2023-03-02T03:45:13.130Z,16.71
2023-03-02T03:47:39.493Z,16.70
2023-03-02T03:50:06.065Z,16.70
2023-03-02T03:52:33.416Z,16.70
2023-03-02T03:54:59.784Z,16.70
2023-03-02T03:57:26.056Z,16.69
2023-03-02T03:59:52.280Z,16.69
2023-03-02T04:02:18.634Z,16.69
2023-03-02T04:04:45.556Z,16.69
2023-03-02T04:07:16.722Z,16.68
2023-03-02T04:12:40.057Z,16.64
2023-03-02T04:15:06.680Z,16.60
2023-03-02T04:17:32.975Z,16.57
2023-03-02T04:19:59.256Z,16.55
2023-03-02T04:22:25.502Z,16.54
2023-03-02T04:24:51.967Z,16.42
2023-03-02T04:27:18.359Z,16.51
2023-03-02T04:29:44.852Z,16.49
2023-03-02T04:32:11.205Z,16.48
2023-03-02T04:34:37.481Z,16.47
2023-03-02T04:37:03.703Z,16.46
2023-03-02T04:39:30.020Z,16.45
2023-03-02T04:41:56.470Z,16.44
2023-03-02T04:44:22.772Z,16.44
2023-03-02T04:46:53.079Z,16.44
2023-03-02T04:49:20.703Z,16.44
2023-03-02T04:51:47.735Z,16.44
2023-03-02T04:54:17.133Z,16.45
2023-03-02T04:56:43.462Z,16.46
2023-03-02T04:59:09.727Z,16.46
2023-03-02T05:01:36.010Z,16.47
2023-03-02T05:04:03.125Z,16.46
2023-03-02T05:06:29.600Z,16.47
2023-03-02T05:08:55.932Z,16.48
2023-03-02T05:11:22.620Z,16.47
2023-03-02T05:13:49.027Z,16.48
2023-03-02T05:16:15.297Z,16.48
2023-03-02T05:18:41.613Z,16.47
2023-03-02T05:21:08.060Z,16.46
2023-03-02T05:23:34.379Z,16.45
2023-03-02T05:26:00.708Z,16.44
2023-03-02T05:28:26.945Z,16.44
2023-03-02T05:30:53.197Z,16.42
2023-03-02T05:33:19.483Z,16.40
2023-03-02T05:35:45.770Z,16.38
2023-03-02T05:38:12.074Z,16.38
2023-03-02T05:40:38.344Z,16.37
2023-03-02T05:43:06.688Z,16.36
2023-03-02T05:45:34.359Z,16.36
2023-03-02T05:48:00.632Z,16.35
2023-03-02T05:50:26.869Z,16.36
2023-03-02T05:52:53.125Z,16.36
2023-03-02T05:55:19.468Z,16.37
2023-03-02T05:57:45.818Z,16.39
2023-03-02T06:00:12.176Z,16.40
2023-03-02T06:02:38.524Z,16.41
2023-03-02T06:05:05.174Z,16.42
2023-03-02T06:07:31.713Z,16.42
2023-03-02T06:09:58.070Z,16.42
2023-03-02T06:12:24.453Z,16.43
2023-03-02T06:14:50.808Z,16.43
2023-03-02T06:17:17.266Z,16.45
2023-03-02T06:19:43.572Z,16.46
2023-03-02T06:22:09.953Z,16.39
2023-03-02T06:24:36.455Z,16.47
2023-03-02T06:27:05.222Z,16.48
2023-03-02T06:29:31.656Z,16.47
2023-03-02T06:31:58.037Z,16.53
2023-03-02T06:34:24.534Z,16.62
2023-03-02T06:36:50.944Z,16.70
2023-03-02T06:39:17.450Z,16.85
2023-03-02T06:41:43.861Z,17.01
2023-03-02T06:44:10.147Z,17.13
2023-03-02T06:46:36.480Z,17.25
2023-03-02T06:49:02.833Z,17.36
2023-03-02T06:51:29.210Z,17.46
2023-03-02T06:53:55.516Z,17.56
2023-03-02T06:56:21.869Z,17.68
2023-03-02T06:58:48.216Z,17.79
2023-03-02T07:01:14.692Z,17.89
2023-03-02T07:03:41.142Z,18.00
2023-03-02T07:06:07.707Z,18.11
2023-03-02T07:08:34.181Z,18.19
2023-03-02T07:11:00.644Z,18.27
2023-03-02T07:13:27.193Z,18.37
2023-03-02T07:15:53.956Z,18.47
2023-03-02T07:18:20.454Z,18.60
2023-03-02T07:20:46.987Z,18.71
2023-03-02T07:23:13.696Z,18.83
2023-03-02T07:25:40.379Z,18.95
2023-03-02T07:28:06.742Z,19.07
2023-03-02T07:30:33.110Z,19.19
2023-03-02T07:32:59.542Z,19.30
2023-03-02T07:35:26.568Z,19.42
2023-03-02T07:37:52.976Z,19.53
2023-03-02T07:40:19.281Z,19.64
2023-03-02T07:42:45.735Z,19.77
2023-03-02T07:45:12.207Z,19.89
2023-03-02T07:47:38.559Z,20.02
2023-03-02T07:50:04.852Z,20.14
2023-03-02T07:52:34.113Z,20.26
2023-03-02T07:55:00.417Z,20.36
2023-03-02T07:57:26.847Z,20.45
2023-03-02T07:59:53.139Z,20.54
2023-03-02T08:02:19.684Z,20.63
2023-03-02T08:04:46.041Z,20.71
2023-03-02T08:07:12.399Z,20.79
2023-03-02T08:09:38.795Z,20.88
2023-03-02T08:12:05.160Z,20.97
2023-03-02T08:14:31.503Z,21.06
2023-03-02T08:16:57.892Z,21.14
2023-03-02T08:19:24.385Z,21.25
2023-03-02T08:21:50.723Z,21.37
2023-03-02T08:24:17.046Z,21.50
2023-03-02T08:26:43.533Z,21.63
2023-03-02T08:29:10.077Z,21.78
2023-03-02T08:31:36.791Z,21.93
2023-03-02T08:34:03.379Z,22.08
2023-03-02T08:36:29.697Z,22.24
2023-03-02T08:38:56.013Z,22.45
2023-03-02T08:41:22.309Z,22.66
2023-03-02T08:43:48.907Z,22.87
2023-03-02T08:46:15.272Z,23.04
2023-03-02T08:48:41.948Z,23.23
2023-03-02T08:51:08.316Z,23.40
2023-03-02T08:53:34.665Z,23.53
2023-03-02T08:56:01.002Z,23.62
2023-03-02T08:58:27.642Z,23.69
2023-03-02T09:00:54.142Z,23.71
2023-03-02T09:03:20.702Z,23.66
2023-03-02T09:05:47.046Z,23.58
2023-03-02T09:08:13.367Z,23.49
2023-03-02T09:10:41.799Z,23.37
2023-03-02T09:13:08.735Z,23.23
2023-03-02T09:15:35.091Z,23.02
2023-03-02T09:18:01.608Z,22.74
2023-03-02T09:20:28.066Z,22.26
2023-03-02T09:22:54.444Z,21.93
2023-03-02T09:25:20.789Z,21.76
2023-03-02T09:27:47.107Z,21.68
2023-03-02T09:30:13.488Z,21.64
2023-03-02T09:32:40.225Z,21.63
2023-03-02T09:35:06.955Z,21.64
2023-03-02T09:37:33.252Z,21.66
2023-03-02T09:39:59.803Z,21.68
2023-03-02T09:42:38.098Z,21.71
2023-03-02T09:45:09.754Z,21.75
2023-03-02T09:47:36.329Z,21.78
2023-03-02T09:50:02.809Z,21.78
2023-03-02T09:52:29.127Z,21.80
2023-03-02T09:54:55.460Z,21.83
2023-03-02T09:57:21.803Z,21.85
2023-03-02T09:59:48.142Z,21.87
2023-03-02T10:02:14.521Z,21.87
2023-03-02T10:04:40.945Z,21.87
2023-03-02T10:07:07.301Z,21.89
2023-03-02T10:09:33.601Z,21.90
2023-03-02T10:11:59.885Z,21.90
2023-03-02T10:14:26.216Z,21.92
2023-03-02T10:16:52.523Z,21.93
2023-03-02T10:19:20.133Z,21.95
2023-03-02T10:21:46.359Z,21.94
2023-03-02T10:24:12.597Z,21.92
2023-03-02T10:26:38.826Z,21.91
2023-03-02T10:29:05.091Z,21.90
2023-03-02T10:31:31.378Z,21.93
2023-03-02T10:33:57.670Z,21.94
2023-03-02T10:36:24.061Z,21.95
2023-03-02T10:38:50.582Z,21.95
2023-03-02T10:41:16.953Z,21.96
2023-03-02T10:43:43.291Z,21.96
2023-03-02T10:46:09.563Z,21.95
2023-03-02T10:48:40.951Z,21.95
2023-03-02T10:51:10.515Z,21.94
2023-03-02T10:53:36.853Z,21.93
2023-03-02T10:56:03.158Z,21.93
2023-03-02T10:58:32.556Z,21.93
2023-03-02T11:00:58.974Z,21.91
2023-03-02T11:03:25.679Z,21.90
2023-03-02T11:05:52.121Z,21.89
2023-03-02T11:08:18.624Z,21.86
2023-03-02T11:10:44.910Z,21.86
2023-03-02T11:13:11.210Z,21.86
2023-03-02T11:15:37.640Z,21.84
2023-03-02T11:18:04.082Z,21.83
2023-03-02T11:20:30.373Z,21.80
2023-03-02T11:22:56.663Z,21.79
2023-03-02T11:25:22.934Z,21.79
2023-03-02T11:27:49.302Z,21.80
2023-03-02T11:30:15.618Z,21.79
2023-03-02T11:32:41.920Z,21.79
2023-03-02T11:35:08.354Z,21.79
2023-03-02T11:37:34.732Z,21.79
2023-03-02T11:40:01.043Z,21.78
2023-03-02T11:42:27.392Z,21.76
2023-03-02T11:44:53.729Z,21.75
2023-03-02T11:47:20.092Z,21.75
2023-03-02T11:49:46.388Z,21.75
2023-03-02T11:52:13.134Z,21.73
2023-03-02T11:54:40.320Z,21.73
2023-03-02T11:57:06.641Z,21.73
2023-03-02T11:59:32.946Z,21.73
2023-03-02T12:02:00.556Z,21.73
2023-03-02T12:04:27.239Z,21.74
2023-03-02T12:06:54.033Z,21.73
2023-03-02T12:09:20.405Z,21.74
2023-03-02T12:11:46.755Z,21.73
2023-03-02T12:14:13.093Z,21.74
2023-03-02T12:16:39.749Z,21.72
2023-03-02T12:19:06.155Z,21.72
2023-03-02T12:21:32.490Z,21.73
2023-03-02T12:23:58.902Z,21.70
2023-03-02T12:26:25.257Z,21.70
2023-03-02T12:28:51.571Z,21.69
2023-03-02T12:31:18.011Z,21.66
2023-03-02T12:33:44.370Z,21.65
2023-03-02T12:36:10.736Z,21.63
2023-03-02T12:38:37.109Z,21.61
2023-03-02T12:41:03.496Z,21.59
2023-03-02T12:43:29.851Z,21.59
2023-03-02T12:45:56.339Z,21.56
2023-03-02T12:48:22.704Z,21.54
2023-03-02T12:50:49.126Z,21.53
2023-03-02T12:53:15.416Z,21.52
2023-03-02T12:55:41.986Z,21.51
2023-03-02T12:58:08.960Z,21.48
2023-03-02T13:00:35.349Z,21.47
2023-03-02T13:03:03.821Z,21.38
2023-03-02T13:05:30.130Z,21.46
2023-03-02T13:07:56.410Z,21.43
2023-03-02T13:10:22.746Z,21.45
2023-03-02T13:12:49.146Z,21.45
2023-03-02T13:15:15.455Z,21.42
2023-03-02T13:17:44.589Z,21.41
2023-03-02T13:20:10.833Z,21.41
2023-03-02T13:22:37.179Z,21.39
2023-03-02T13:25:03.523Z,21.37
2023-03-02T13:27:32.341Z,21.36
2023-03-02T13:29:58.779Z,21.34
2023-03-02T13:32:25.236Z,21.31
2023-03-02T13:34:51.639Z,21.29
2023-03-02T13:37:17.976Z,21.27
2023-03-02T13:39:44.491Z,21.24
2023-03-02T13:42:10.764Z,21.22
2023-03-02T13:44:37.191Z,21.21
2023-03-02T13:47:03.461Z,21.19
2023-03-02T13:49:30.010Z,21.17
2023-03-02T13:51:56.314Z,21.15
2023-03-02T13:54:22.697Z,21.14
2023-03-02T13:56:49.241Z,21.11
2023-03-02T13:59:15.651Z,21.09
2023-03-02T14:01:42.020Z,21.07
2023-03-02T14:04:08.511Z,21.04
2023-03-02T14:06:35.124Z,21.02
2023-03-02T14:09:01.724Z,21.00
2023-03-02T14:11:28.250Z,20.97
2023-03-02T14:13:54.670Z,20.96
2023-03-02T14:16:20.982Z,20.92
2023-03-02T14:18:47.283Z,20.91
2023-03-02T14:21:16.681Z,20.88
2023-03-02T14:23:42.982Z,20.86
2023-03-02T14:26:09.345Z,20.84
2023-03-02T14:28:35.767Z,20.82
2023-03-02T14:31:02.115Z,20.79
2023-03-02T14:33:28.496Z,20.77
2023-03-02T14:35:54.923Z,20.76
2023-03-02T14:38:21.365Z,20.74
2023-03-02T14:40:47.863Z,20.73
2023-03-02T14:43:14.189Z,20.69
2023-03-02T14:45:40.594Z,20.68
2023-03-02T14:48:06.943Z,20.65
2023-03-02T14:50:33.595Z,20.64
2023-03-02T14:53:00.703Z,20.62
2023-03-02T14:55:27.290Z,20.60
2023-03-02T14:57:54.141Z,20.57
2023-03-02T15:00:20.788Z,20.55
2023-03-02T15:02:47.300Z,20.54
2023-03-02T15:05:13.725Z,20.51
2023-03-02T15:07:40.050Z,20.50
2023-03-02T15:10:06.318Z,20.47
2023-03-02T15:12:32.673Z,20.45
2023-03-02T15:14:58.992Z,20.42
2023-03-02T15:17:25.685Z,20.40
2023-03-02T15:19:52.057Z,20.39
2023-03-02T15:22:18.347Z,20.37
2023-03-02T15:24:44.923Z,20.35
2023-03-02T15:27:11.715Z,20.33
2023-03-02T15:29:38.355Z,20.30
2023-03-02T15:32:04.883Z,20.26
2023-03-02T15:34:31.208Z,20.24
2023-03-02T15:36:57.572Z,20.23
2023-03-02T15:39:26.675Z,20.21
2023-03-02T15:41:52.989Z,20.19
2023-03-02T15:44:19.401Z,20.15
2023-03-02T15:46:45.849Z,20.14
2023-03-02T15:49:15.549Z,20.12
2023-03-02T15:51:41.879Z,20.11
2023-03-02T15:54:08.173Z,20.10
2023-03-02T15:56:43.721Z,20.09
2023-03-02T15:59:10.855Z,20.08
2023-03-02T16:01:37.288Z,20.07
2023-03-02T16:04:03.632Z,20.05
2023-03-02T16:06:29.988Z,20.05
2023-03-02T16:08:56.451Z,20.04
2023-03-02T16:11:27.945Z,20.03
2023-03-02T16:13:54.257Z,20.01
2023-03-02T16:16:20.653Z,19.98
2023-03-02T16:18:46.998Z,19.97
2023-03-02T16:21:13.333Z,19.95
2023-03-02T16:23:39.831Z,19.92
2023-03-02T16:26:06.132Z,19.90
2023-03-02T16:28:32.606Z,19.88
2023-03-02T16:30:59.046Z,19.85
2023-03-02T16:33:25.334Z,19.82
2023-03-02T16:35:51.675Z,19.79
2023-03-02T16:38:18.099Z,19.77
2023-03-02T16:40:44.423Z,19.75
2023-03-02T16:43:10.755Z,19.73
2023-03-02T16:45:37.160Z,19.71
2023-03-02T16:48:03.625Z,19.62
2023-03-02T16:50:29.898Z,19.67
2023-03-02T16:52:56.188Z,19.66
2023-03-02T16:55:22.452Z,19.63
2023-03-02T16:57:48.778Z,19.61
2023-03-02T17:00:15.168Z,19.59
2023-03-02T17:02:41.570Z,19.58
2023-03-02T17:05:07.838Z,19.56
2023-03-02T17:07:34.292Z,19.56
2023-03-02T17:10:00.659Z,19.56
2023-03-02T17:12:27.028Z,19.54
2023-03-02T17:14:53.353Z,19.54
2023-03-02T17:17:19.750Z,19.53
2023-03-02T17:19:46.056Z,19.50
2023-03-02T17:22:12.511Z,19.49
2023-03-02T17:24:38.919Z,19.49
2023-03-02T17:27:13.070Z,19.48
2023-03-02T17:29:45.536Z,19.49
2023-03-02T17:32:12.060Z,19.48
2023-03-02T17:34:38.611Z,19.49
2023-03-02T17:37:05.095Z,19.50
2023-03-02T17:39:31.454Z,19.49
2023-03-02T17:41:57.850Z,19.50
2023-03-02T17:44:24.188Z,19.49
2023-03-02T17:46:50.589Z,19.50
2023-03-02T17:49:16.993Z,19.49
2023-03-02T17:51:43.776Z,19.48
2023-03-02T17:54:10.525Z,19.48
2023-03-02T17:56:37.015Z,19.46
2023-03-02T17:59:03.388Z,19.44
2023-03-02T18:01:29.965Z,19.43
2023-03-02T18:03:56.475Z,19.42
2023-03-02T18:06:22.843Z,19.39
2023-03-02T18:08:49.265Z,19.37
2023-03-02T18:11:15.606Z,19.35
2023-03-02T18:13:42.059Z,19.34
2023-03-02T18:16:08.427Z,19.31
2023-03-02T18:18:34.949Z,19.28
2023-03-02T18:21:01.327Z,19.25
2023-03-02T18:23:27.621Z,19.22
2023-03-02T18:25:53.990Z,19.18
2023-03-02T18:28:20.306Z,19.14
2023-03-02T18:30:46.638Z,19.11
2023-03-02T18:33:12.994Z,19.07
2023-03-02T18:35:39.546Z,19.05
2023-03-02T18:38:05.929Z,19.03
2023-03-02T18:40:32.301Z,19.00
2023-03-02T18:42:58.612Z,18.97
2023-03-02T18:45:24.982Z,18.93
2023-03-02T18:47:51.384Z,18.91
2023-03-02T18:50:17.674Z,18.87
2023-03-02T18:52:44.025Z,18.84
2023-03-02T18:55:10.355Z,18.81
2023-03-02T18:57:36.767Z,18.80
2023-03-02T19:00:03.163Z,18.78
2023-03-02T19:02:29.458Z,18.77
2023-03-02T19:04:55.742Z,18.76
2023-03-02T19:07:22.075Z,18.75
2023-03-02T19:09:48.341Z,18.73
2023-03-02T19:12:14.661Z,18.72
2023-03-02T19:14:41.179Z,18.71
2023-03-02T19:17:07.567Z,18.71
2023-03-02T19:19:34.108Z,18.69
2023-03-02T19:22:00.493Z,18.68
2023-03-02T19:24:26.840Z,18.67
2023-03-02T19:26:53.182Z,18.66
2023-03-02T19:29:20.622Z,18.64
2023-03-02T19:31:47.297Z,18.64
2023-03-02T19:34:13.689Z,18.62
2023-03-02T19:36:40.220Z,18.62
2023-03-02T19:39:06.547Z,18.63
2023-03-02T19:41:32.876Z,18.64
2023-03-02T19:43:59.434Z,18.64
2023-03-02T19:46:25.686Z,18.64
2023-03-02T19:48:52.045Z,18.64
2023-03-02T19:51:18.454Z,18.64
2023-03-02T19:53:47.963Z,18.64
2023-03-02T19:56:14.245Z,18.63
2023-03-02T19:58:40.600Z,18.63
2023-03-02T20:01:08.378Z,18.61
2023-03-02T20:03:36.308Z,18.59
2023-03-02T20:06:02.694Z,18.58
2023-03-02T20:08:29.438Z,18.57
2023-03-02T20:10:55.817Z,18.55
2023-03-02T20:13:22.101Z,18.53
2023-03-02T20:15:48.402Z,18.51
2023-03-02T20:18:14.679Z,18.51
2023-03-02T20:20:41.185Z,18.51
2023-03-02T20:23:07.604Z,18.51
2023-03-02T20:25:33.890Z,18.48
2023-03-02T20:28:00.240Z,18.47
2023-03-02T20:30:30.630Z,18.46
2023-03-02T20:32:57.046Z,18.47
2023-03-02T20:35:23.452Z,18.44
2023-03-02T20:37:49.792Z,18.46
2023-03-02T20:43:02.522Z,18.44
2023-03-02T20:45:36.619Z,18.44
2023-03-02T20:48:07.391Z,18.43
2023-03-02T20:53:58.193Z,18.38
2023-03-02T20:56:26.132Z,18.37
2023-03-02T20:58:52.459Z,18.35
2023-03-02T21:01:19.505Z,18.34
2023-03-02T21:03:45.850Z,18.33
2023-03-02T21:06:13.645Z,18.32
2023-03-02T21:08:41.202Z,18.30
2023-03-02T21:11:08.849Z,18.29
2023-03-02T21:13:35.409Z,18.28
2023-03-02T21:16:02.538Z,18.26
2023-03-02T21:18:28.834Z,18.24
2023-03-02T21:20:55.133Z,18.21
2023-03-02T21:23:21.428Z,18.20
2023-03-02T21:25:47.650Z,18.18
2023-03-02T21:28:14.463Z,18.16
2023-03-02T21:30:42.677Z,18.14
2023-03-02T21:33:09.002Z,18.12
2023-03-02T21:35:35.460Z,18.11
2023-03-02T21:38:01.917Z,18.10
2023-03-02T21:40:29.779Z,18.09
2023-03-02T21:42:58.764Z,18.07
2023-03-02T21:45:25.081Z,18.05
2023-03-02T21:47:51.566Z,18.03
2023-03-02T21:50:17.960Z,18.02
2023-03-02T21:52:44.200Z,18.01
2023-03-02T21:55:10.529Z,18.01
2023-03-02T21:57:38.946Z,18.01
2023-03-02T22:00:05.328Z,18.01
2023-03-02T22:02:31.671Z,18.02
2023-03-02T22:04:57.999Z,18.03
2023-03-02T22:07:24.372Z,18.05
2023-03-02T22:09:50.746Z,18.06
2023-03-02T22:12:17.477Z,18.07
2023-03-02T22:14:43.769Z,18.08
2023-03-02T22:17:10.096Z,18.08
2023-03-02T22:20:08.362Z,18.09
2023-03-02T22:22:34.813Z,18.09
2023-03-02T22:25:03.913Z,18.09
2023-03-02T22:27:30.593Z,18.09
2023-03-02T22:29:57.147Z,18.10
2023-03-02T22:32:29.643Z,18.10
2023-03-02T22:37:57.969Z,18.08
2023-03-02T22:40:24.312Z,18.06
2023-03-02T22:42:50.624Z,18.06
2023-03-02T22:45:17.805Z,18.05
2023-03-02T22:47:44.175Z,18.04
2023-03-02T22:50:10.478Z,18.03
2023-03-02T22:52:36.825Z,18.01
2023-03-02T22:55:03.129Z,18.01
2023-03-02T22:57:33.893Z,17.99
2023-03-02T23:00:00.399Z,17.97
2023-03-02T23:02:26.840Z,17.91
2023-03-02T23:04:53.175Z,17.79
2023-03-02T23:07:21.395Z,17.63
2023-03-02T23:09:51.359Z,17.46
2023-03-02T23:15:08.596Z,17.16
2023-03-02T23:17:34.876Z,17.04
2023-03-02T23:20:05.686Z,16.93
2023-03-02T23:22:31.973Z,16.81
2023-03-02T23:24:58.255Z,16.72
2023-03-02T23:27:24.494Z,16.62
2023-03-02T23:29:57.812Z,16.54
2023-03-02T23:32:28.836Z,16.45
2023-03-02T23:35:02.126Z,16.36
2023-03-02T23:37:31.369Z,16.29
2023-03-02T23:39:57.744Z,16.21
2023-03-02T23:42:26.398Z,16.14
2023-03-02T23:44:55.754Z,16.08
2023-03-02T23:47:22.036Z,16.00
2023-03-02T23:49:48.308Z,15.94
2023-03-02T23:52:14.664Z,15.86
2023-03-02T23:54:41.031Z,15.81
